Celebrity Mercury — 9HJG9 — position and weather

sailwx.info

Track history (hours):
 
Tides and Currents Weather Stations Pressure Air Temp Water Temp Dewpoint Dewpoint Depression Visibility Wind Speed Wind Dir Waves Ship Positions

Celebrity Mercury

Last reported at 2018-Dec-11 07:29 UTC. Time now 2018-Dec-11 08:01 UTC.
Position N 41°22' E 002°11'.

Length 264 m; draft 8.5 m.

Type: Ship. MMSI: 249053000.

Date/timePositionNaut miles runAvg speedWind from/ knotsBaromVisibWave heightAir tempDewpointWater temp
2018-Dec-11 07:29N 41°22' E 002°11'0 0.0
2018-Dec-11 06:58N 41°22' E 002°11'0 0.0
2018-Dec-11 06:28N 41°22' E 002°11'0 0.0
2018-Dec-11 05:58N 41°22' E 002°11'0 0.0
2018-Dec-11 05:30N 41°22' E 002°11'1 2.9
2018-Dec-11 05:00N 41°20' E 002°10'4 8.7
2018-Dec-11 04:30N 41°16' E 002°11'612.8
2018-Dec-11 04:00N 41°11' E 002°05'612.3
2018-Dec-11 03:30N 41°07' E 002°00'612.7
2018-Dec-11 03:00N 41°02' E 001°55'2115.6
2018-Dec-11 03:00N 41°00' E 001°54'510.3 280 / 121024.010.8 16.0 19.0
2018-Dec-11 02:30N 40°57' E 001°49'713.0
2018-Dec-11 02:00N 40°51' E 001°44'2914.5
2018-Dec-11 00:00N 40°30' E 001°18'4715.8 240 / 61026.010.8 16.0 19.0
2018-Dec-10 21:00N 40°00' E 000°30'3914.3 150 / 71027.010.8 16.0 19.0
2018-Dec-10 18:16N 39°33' W 000°07'416.0
2018-Dec-10 18:01N 39°30' W 000°10'713.9
2018-Dec-10 17:30N 39°26' W 000°17'2 4.7
2018-Dec-10 17:00N 39°27' W 000°19'0 0.0
2018-Dec-10 16:29N 39°27' W 000°19'0 0.0
2018-Dec-10 16:01N 39°27' W 000°19'0 0.0
2018-Dec-10 15:27N 39°27' W 000°19'0 0.0
2018-Dec-10 14:59N 39°27' W 000°19'0 0.0
2018-Dec-10 14:29N 39°27' W 000°19'0 0.0
2018-Dec-10 13:55N 39°27' W 000°19'0 0.0
2018-Dec-10 13:27N 39°27' W 000°19'0 0.0
2018-Dec-10 12:59N 39°27' W 000°19'0 0.0
2018-Dec-10 12:29N 39°27' W 000°19'0 0.0
2018-Dec-10 11:59N 39°27' W 000°19'0 0.0
2018-Dec-10 11:28N 39°27' W 000°19'0 0.0
2018-Dec-10 10:52N 39°27' W 000°19'0 0.0
2018-Dec-10 10:29N 39°27' W 000°19'0 0.0
2018-Dec-10 10:00N 39°27' W 000°19'0 0.0
2018-Dec-10 09:30N 39°27' W 000°19'0 0.0
2018-Dec-10 08:55N 39°27' W 000°19'0 0.0
2018-Dec-10 08:26N 39°27' W 000°19'0 0.0
2018-Dec-10 07:56N 39°27' W 000°19'0 0.0
2018-Dec-10 07:30N 39°27' W 000°19'0 0.0
2018-Dec-10 06:55N 39°27' W 000°19'0 0.8
2018-Dec-10 06:30N 39°27' W 000°19'2 3.7
2018-Dec-10 06:00N 39°26' W 000°18'4 7.4
2018-Dec-10 05:29N 39°23' W 000°14'20 8.1
2018-Dec-10 03:00N 39°06' E 000°00'26 8.6 090 / 111028.027.0 19.0 19.0
2018-Dec-10 00:00N 38°48' E 000°24'11 6.5 300 / 141027.010.8 19.0 19.0
2018-Dec-09 22:20N 38°37' E 000°24'3 8.6
2018-Dec-09 22:00N 38°35' E 000°22'4 8.5
2018-Dec-09 21:30N 38°31' E 000°19'4 8.4
2018-Dec-09 21:00N 38°28' E 000°16'5306.8
2018-Dec-09 21:00N 38°24' E 000°12'1 1.3 250 / 91027.010.8 17.0 19.0
2018-Dec-09 20:30N 38°24' E 000°13'4 8.6
2018-Dec-09 20:00N 38°21' E 000°10'4 8.7
2018-Dec-09 19:30N 38°17' E 000°06'4 8.9
2018-Dec-09 19:00N 38°14' E 000°03'4 8.8
2018-Dec-09 18:30N 38°10' E 000°00'4 8.6
2018-Dec-09 18:00N 38°07' W 000°03'1398789.1
2018-Dec-09 18:00N 38°06' W 003°00'137279.1 230 / 131027.0 5.4 16.0 19.0
2018-Dec-09 17:30N 38°03' W 000°06'5 8.9
2018-Dec-09 16:59N 37°59' W 000°09'4 9.1
2018-Dec-09 16:30N 37°55' W 000°12'4 8.8
2018-Dec-09 16:00N 37°52' W 000°15'4 8.8
2018-Dec-09 15:30N 37°48' W 000°18'4 8.9
2018-Dec-09 15:00N 37°44' W 000°21'3217.6
2018-Dec-09 15:00N 37°42' W 000°18'511.2 230 / 191026.0 5.4 17.0 19.0
2018-Dec-09 14:30N 37°41' W 000°25'4 9.0
2018-Dec-09 14:00N 37°37' W 000°28'4 8.9
2018-Dec-09 13:30N 37°33' W 000°31'611.1
2018-Dec-09 13:00N 37°29' W 000°36'713.3
2018-Dec-09 12:30N 37°25' W 000°42'713.2
2018-Dec-09 12:00N 37°21' W 000°49'3166.1
2018-Dec-09 12:00N 37°18' W 000°48'611.7 240 / 121028.0 5.4 17.0 19.0
2018-Dec-09 11:29N 37°16' W 000°55'613.4
2018-Dec-09 11:00N 37°12' W 001°01'713.0
2018-Dec-09 10:27N 37°07' W 001°08'1012.8
2018-Dec-09 09:40N 37°00' W 001°17'812.4
2018-Dec-09 09:00N 36°54' W 001°24'4213.9 290 / 71030.010.8 16.0 19.0
2018-Dec-09 06:00N 36°24' W 002°00'3913.0 030 / 41029.0 5.4 16.0 19.0
2018-Dec-09 03:00N 36°18' W 002°48'3913.0 070 / 121029.010.8 17.0 19.0
2018-Dec-09 00:00N 36°24' W 003°36'34 1.6 060 / 141029.0 5.4 17.0 19.0
2018-Dec-08 03:00N 36°24' W 004°18'19 6.2 250 / 131026.010.8 17.0 19.0
2018-Dec-08 00:00N 36°06' W 004°12'20 6.8 250 / 181026.0 5.4 17.0 19.0
2018-Dec-07 21:00N 36°00' W 004°36'2910.1 270 / 141027.0 5.4 17.0 19.0
2018-Dec-07 18:07N 35°60' W 005°12'215.5
2018-Dec-07 18:00N 36°01' W 005°14'714.5
2018-Dec-07 17:31N 36°05' W 005°21'4 6.1
2018-Dec-07 16:55N 36°09' W 005°22'0 0.0
2018-Dec-07 07:16N 36°09' W 005°22'0 0.0
2018-Dec-07 07:01N 36°09' W 005°22'0 0.1
2018-Dec-07 06:31N 36°09' W 005°22'3 5.2
2018-Dec-07 06:00N 36°06' W 005°23'510.0
2018-Dec-07 05:30N 36°01' W 005°23'612.5
2018-Dec-07 05:00N 35°58' W 005°29'2314.1
2018-Dec-07 03:24N 35°55' W 005°57'2 5.9
2018-Dec-07 03:00N 35°54' W 006°00'3913.1 1026.0 5.4 17.0 21.0
2018-Dec-07 00:00N 36°00' W 006°48'30 9.9 350 / 151026.010.8 17.0 20.0
2018-Dec-06 21:00N 36°06' W 007°24'25 8.3 340 / 121027.010.8 19.0 21.0
2018-Dec-06 18:00N 36°12' W 007°54'3110.5 320 / 91027.027.0 17.0 20.0
2018-Dec-06 15:00N 36°24' W 008°30'17 9.4 340 / 91026.510.8 16.0 20.0
2018-Dec-06 13:10N 36°28' W 008°51'2 8.5
2018-Dec-06 12:59N 36°28' W 008°53'611.8
2018-Dec-06 12:30N 36°30' W 008°59'510.3
2018-Dec-06 12:00N 36°30' W 009°06'267.0 350 / 191028.0 5.4 17.0 20.0
2018-Dec-06 11:57N 36°32' W 009°08'612.2
2018-Dec-06 11:30N 36°33' W 009°14'611.7
2018-Dec-06 11:00N 36°37' W 009°20'611.9
2018-Dec-06 10:30N 36°41' W 009°25'611.8
2018-Dec-06 10:00N 36°46' W 009°30'611.8
2018-Dec-06 09:30N 36°51' W 009°33'612.7
2018-Dec-06 09:00N 36°57' W 009°35'5365.6
2018-Dec-06 09:00N 36°54' W 009°30'1218.9 020 / 181029.010.8 17.0 19.0
2018-Dec-06 08:20N 37°06' W 009°34'512.9
2018-Dec-06 07:59N 37°10' W 009°34'613.1
2018-Dec-06 07:30N 37°17' W 009°33'812.9
2018-Dec-06 06:54N 37°25' W 009°33'513.2
2018-Dec-06 06:31N 37°30' W 009°33'713.3
2018-Dec-06 06:00N 37°36' W 009°32'182.8
2018-Dec-06 06:00N 37°36' W 009°30'714.2 020 / 121029.010.8 16.0 18.0
2018-Dec-06 05:30N 37°43' W 009°30'713.3
2018-Dec-06 05:00N 37°50' W 009°29'612.9
2018-Dec-06 04:30N 37°56' W 009°28'612.8
2018-Dec-06 04:00N 38°02' W 009°27'612.8
2018-Dec-06 03:30N 38°09' W 009°27'4 8.2
2018-Dec-06 03:00N 38°12' W 009°24'1021.6 020 / 71029.010.8 16.0 19.0
2018-Dec-06 02:30N 38°22' W 009°26'713.8
2018-Dec-06 02:00N 38°29' W 009°25'612.7
2018-Dec-06 01:30N 38°36' W 009°24'611.8
2018-Dec-06 01:01N 38°40' W 009°19'510.3
2018-Dec-06 00:30N 38°41' W 009°12'4 8.2
2018-Dec-06 00:01N 38°43' W 009°07'0 0.1
2018-Dec-05 23:29N 38°43' W 009°07'0 0.0
2018-Dec-05 23:00N 38°43' W 009°07'0 0.0
2018-Dec-05 22:28N 38°43' W 009°07'0 0.0
2018-Dec-05 22:00N 38°43' W 009°07'0 0.0
2018-Dec-05 21:28N 38°43' W 009°07'0 0.0
2018-Dec-05 21:00N 38°43' W 009°07'0 0.0
2018-Dec-05 20:30N 38°43' W 009°07'0 0.0
2018-Dec-05 19:58N 38°43' W 009°07'0 0.0
2018-Dec-05 19:29N 38°43' W 009°07'0 0.0
2018-Dec-05 18:58N 38°43' W 009°07'0 0.0
2018-Dec-05 18:29N 38°43' W 009°07'0 0.0
2018-Dec-05 17:58N 38°43' W 009°07'0 0.0
2018-Dec-05 17:30N 38°43' W 009°07'0 0.0
2018-Dec-05 17:00N 38°43' W 009°07'0 0.0
2018-Dec-05 16:30N 38°43' W 009°07'0 0.0
2018-Dec-05 15:58N 38°43' W 009°07'0 0.0
2018-Dec-05 15:28N 38°43' W 009°07'0 0.0
2018-Dec-05 15:00N 38°43' W 009°07'0 0.0
2018-Dec-05 14:29N 38°43' W 009°07'0 0.0
2018-Dec-05 13:55N 38°43' W 009°07'0 0.0
2018-Dec-05 13:30N 38°43' W 009°07'0 0.0
2018-Dec-05 13:00N 38°43' W 009°07'0 0.0
2018-Dec-05 12:28N 38°43' W 009°07'0 0.0
2018-Dec-05 11:59N 38°43' W 009°07'0 0.0
2018-Dec-05 11:30N 38°43' W 009°07'0 0.0
2018-Dec-05 11:00N 38°43' W 009°07'0 0.0
2018-Dec-05 10:29N 38°43' W 009°07'0 0.0
2018-Dec-05 10:00N 38°43' W 009°07'0 0.0
2018-Dec-05 09:29N 38°43' W 009°07'0 0.1
2018-Dec-05 09:00N 38°43' W 009°07'1 2.2
2018-Dec-05 08:30N 38°42' W 009°09'5 9.2
2018-Dec-05 08:00N 38°41' W 009°14'510.8
2018-Dec-05 07:30N 38°39' W 009°20'612.8
2018-Dec-05 07:00N 38°33' W 009°24'815.2
2018-Dec-05 06:30N 38°25' W 009°23'815.6
2018-Dec-05 06:00N 38°17' W 009°24'815.6
2018-Dec-05 05:30N 38°10' W 009°23'815.7
2018-Dec-05 05:00N 38°02' W 009°23'714.8
2018-Dec-05 04:31N 37°54' W 009°23'918.0
2018-Dec-05 04:00N 37°45' W 009°23'918.0
2018-Dec-05 03:30N 37°36' W 009°23'918.0
2018-Dec-05 03:00N 37°27' W 009°22'51034.9
2018-Dec-05 03:00N 37°24' W 009°18'1515.4 340 / 31023.010.8 17.0 19.0
2018-Dec-05 02:00N 37°09' W 009°22'918.0
2018-Dec-05 01:29N 36°60' W 009°21'917.7
2018-Dec-05 00:56N 36°51' W 009°17'1117.3
2018-Dec-05 00:19N 36°44' W 009°07'617.6
2018-Dec-05 00:00N 36°42' W 009°00'122.7 050 / 21023.0 5.4 17.0 19.0
2018-Dec-04 23:57N 36°42' W 008°59'1117.5
2018-Dec-04 23:19N 36°42' W 008°45'517.5
2018-Dec-04 23:00N 36°41' W 008°38'917.9
2018-Dec-04 22:30N 36°41' W 008°27'1717.7
2018-Dec-04 21:34N 36°40' W 008°07'117.4
2018-Dec-04 21:30N 36°40' W 008°05'917.8
2018-Dec-04 21:00N 36°39' W 007°54'3613.9
2018-Dec-04 21:00N 36°36' W 007°54'1118.5 010 / 71023.0 0.0 22.0 20.0
2018-Dec-04 20:23N 36°38' W 007°40'717.9
2018-Dec-04 20:00N 36°38' W 007°32'918.0
2018-Dec-04 19:30N 36°37' W 007°21'1717.9
2018-Dec-04 18:33N 36°36' W 006°59'418.1
2018-Dec-04 18:19N 36°36' W 006°54'718.1
2018-Dec-04 17:55N 36°35' W 006°45'1617.8
2018-Dec-04 17:01N 36°34' W 006°25'315.7
2018-Dec-04 16:50N 36°34' W 006°22'410.9
2018-Dec-04 16:30N 36°33' W 006°17'1 1.8
2018-Dec-04 15:47N 36°32' W 006°17'0 0.0
2018-Dec-04 13:28N 36°32' W 006°17'0 0.0
2018-Dec-04 11:53N 36°32' W 006°17'0 0.0
2018-Dec-04 05:41N 36°32' W 006°17'1 4.4
2018-Dec-04 05:27N 36°33' W 006°17'4 8.0
2018-Dec-04 05:00N 36°33' W 006°21'3316.5
2018-Dec-04 03:00N 36°00' W 006°18'15 9.7 180 / 51021.0 5.4 17.0 20.0
2018-Dec-04 01:30N 35°58' W 006°00'1813.9
2018-Dec-04 00:15N 35°57' W 005°39'314.8
2018-Dec-04 00:01N 35°58' W 005°34'5319.8
2018-Dec-04 00:00N 35°54' W 005°30'714.6 150 / 21022.010.8 17.0 20.0
2018-Dec-03 23:31N 36°00' W 005°26'713.9
2018-Dec-03 23:00N 36°02' W 005°18'713.8
2018-Dec-03 22:31N 36°03' W 005°09'714.4
2018-Dec-03 22:00N 36°05' W 005°01'714.0
2018-Dec-03 21:31N 36°06' W 004°52'815.7
2018-Dec-03 21:00N 36°06' W 004°42'312.6 210 / 91021.010.8 18.0 19.0
2018-Dec-03 20:47N 36°08' W 004°40'4223.4
2018-Dec-03 19:00N 36°12' W 003°48'5814.6 230 / 81021.0 5.4 17.0 19.0
2018-Dec-03 15:00N 36°18' W 002°36'5418.0 210 / 81021.010.8 18.0 19.0
2018-Dec-03 12:00N 36°42' W 001°36'2118.2 220 / 101021.510.8 18.0 19.0
2018-Dec-03 10:49N 36°57' W 001°16'918.0
2018-Dec-03 10:20N 37°02' W 001°08'1017.9
2018-Dec-03 09:48N 37°07' W 000°58'518.1
2018-Dec-03 09:30N 37°10' W 000°52'918.2
2018-Dec-03 09:00N 37°16' W 000°43'4298.6
2018-Dec-03 09:00N 37°12' W 000°42'1122.6 220 / 121022.010.8 17.0 19.0
2018-Dec-03 08:30N 37°21' W 000°34'918.1
2018-Dec-03 08:00N 37°26' W 000°25'918.0
2018-Dec-03 07:30N 37°31' W 000°15'918.0
2018-Dec-03 07:00N 37°37' W 000°06'917.9
2018-Dec-03 06:30N 37°42' E 000°03'2 4.4
2018-Dec-03 06:00N 37°42' E 000°06'5919.8 210 / 181020.010.8 19.0
2018-Dec-03 03:00N 38°18' E 001°06'1921.0 220 / 141020.010.8 17.0 20.0
2018-Dec-03 02:04N 38°28' E 001°27'118.0
2018-Dec-03 02:00N 38°29' E 001°28'917.9
2018-Dec-03 01:30N 38°33' E 001°38'1718.0
2018-Dec-03 00:34N 38°46' E 001°52'118.3
2018-Dec-03 00:30N 38°47' E 001°53'917.2
2018-Dec-03 00:00N 38°54' E 002°00'420.9 240 / 151021.010.8 17.0 20.0
2018-Dec-02 23:47N 38°57' E 002°04'918.1
2018-Dec-02 23:18N 39°03' E 002°12'917.9
2018-Dec-02 22:47N 39°10' E 002°20'617.8
2018-Dec-02 22:27N 39°15' E 002°25'818.1
2018-Dec-02 22:00N 39°22' E 002°30'918.2
2018-Dec-02 21:30N 39°29' E 002°37'4 7.6
2018-Dec-02 21:00N 39°33' E 002°38'0 0.0
2018-Dec-02 20:28N 39°33' E 002°38'0 0.0
2018-Dec-02 19:58N 39°33' E 002°38'0 0.0
2018-Dec-02 19:28N 39°33' E 002°38'0 0.0
2018-Dec-02 18:58N 39°33' E 002°38'0 0.0
2018-Dec-02 18:27N 39°33' E 002°38'0 0.0
2018-Dec-02 18:00N 39°33' E 002°38'0 0.0
2018-Dec-02 17:30N 39°33' E 002°38'0 0.0
2018-Dec-02 17:00N 39°33' E 002°38'0 0.0
2018-Dec-02 16:30N 39°33' E 002°38'0 0.0
2018-Dec-02 16:00N 39°33' E 002°38'0 0.0
2018-Dec-02 15:30N 39°33' E 002°38'0 0.0
2018-Dec-02 15:00N 39°33' E 002°38'0 0.0
2018-Dec-02 14:30N 39°33' E 002°38'0 0.0
2018-Dec-02 14:00N 39°33' E 002°38'0 0.0
2018-Dec-02 13:30N 39°33' E 002°38'0 0.0
2018-Dec-02 12:57N 39°33' E 002°38'0 0.0
2018-Dec-02 12:30N 39°33' E 002°38'0 0.0
2018-Dec-02 12:00N 39°33' E 002°38'0 0.0
2018-Dec-02 11:30N 39°33' E 002°38'0 0.0
2018-Dec-02 11:00N 39°33' E 002°38'0 0.0
2018-Dec-02 10:30N 39°33' E 002°38'0 0.0
2018-Dec-02 10:00N 39°33' E 002°38'0 0.0
2018-Dec-02 09:30N 39°33' E 002°38'0 0.0
2018-Dec-02 08:59N 39°33' E 002°38'0 0.0
2018-Dec-02 08:29N 39°33' E 002°38'0 0.0
2018-Dec-02 07:59N 39°33' E 002°38'0 0.0
2018-Dec-02 07:30N 39°33' E 002°38'0 0.0
2018-Dec-02 07:00N 39°33' E 002°38'0 0.0
2018-Dec-02 06:30N 39°33' E 002°38'0 0.0
2018-Dec-02 06:00N 39°33' E 002°38'0 0.0
2018-Dec-02 05:30N 39°33' E 002°38'0 0.0
2018-Dec-02 05:00N 39°33' E 002°38'0 0.0
2018-Dec-02 04:30N 39°33' E 002°38'0 0.0
2018-Dec-02 04:00N 39°33' E 002°38'0 0.0
2018-Dec-02 03:30N 39°33' E 002°38'0 0.0
2018-Dec-02 03:00N 39°33' E 002°38'0 0.8
2018-Dec-02 02:30N 39°33' E 002°38'2 3.6
2018-Dec-02 02:00N 39°31' E 002°38'510.9
2018-Dec-02 01:30N 39°27' E 002°34'714.7
2018-Dec-02 01:00N 39°27' E 002°25'1716.7
2018-Dec-02 00:00N 39°36' E 002°06'4816.0 250 / 61021.010.8 16.0 19.0
2018-Dec-01 21:00N 40°24' E 002°06'4117.6 240 / 141022.010.8 16.0 18.0
2018-Dec-01 18:41N 41°05' E 002°11'316.8
2018-Dec-01 18:30N 41°08' E 002°11'816.6
2018-Dec-01 18:00N 41°16' E 002°11'5 9.7
2018-Dec-01 17:30N 41°21' E 002°10'1 2.3
2018-Dec-01 16:59N 41°22' E 002°11'0 0.0
2018-Dec-01 16:28N 41°22' E 002°11'0 0.0
2018-Dec-01 16:00N 41°22' E 002°11'0 0.0
2018-Dec-01 15:30N 41°22' E 002°11'0 0.0
2018-Dec-01 14:57N 41°22' E 002°11'0 0.0
2018-Dec-01 14:29N 41°22' E 002°11'0 0.0
2018-Dec-01 13:58N 41°22' E 002°11'0 0.0
2018-Dec-01 13:30N 41°22' E 002°11'0 0.0
2018-Dec-01 13:00N 41°22' E 002°11'0 0.0
2018-Dec-01 12:29N 41°22' E 002°11'0 0.0
2018-Dec-01 11:59N 41°22' E 002°11'0 0.0
2018-Dec-01 11:29N 41°22' E 002°11'0 0.0
2018-Dec-01 10:59N 41°22' E 002°11'0 0.0
2018-Dec-01 10:28N 41°22' E 002°11'0 0.0
2018-Dec-01 09:58N 41°22' E 002°11'0 0.0
2018-Dec-01 09:30N 41°22' E 002°11'0 0.0
2018-Dec-01 08:59N 41°22' E 002°11'0 0.0
2018-Dec-01 08:30N 41°22' E 002°11'0 0.0
2018-Dec-01 07:58N 41°22' E 002°11'  
Track history (hours):
 
Tides and Currents Weather Stations Pressure Air Temp Water Temp Dewpoint Dewpoint Depression Visibility Wind Speed Wind Dir Waves Ship Positions

Celebrity Mercury

Last reported at 2018-Dec-11 07:29 UTC. Time now 2018-Dec-11 08:01 UTC.
Position N 41°22' E 002°11'.

Length 264 m; draft 8.5 m.

Type: Ship. MMSI: 249053000.

Date/timePositionNaut miles runAvg speedWind from/ knotsBaromVisibWave heightAir tempDewpointWater temp
2018-Dec-11 07:29N 41°22' E 002°11'0 0.0
2018-Dec-11 06:58N 41°22' E 002°11'0 0.0
2018-Dec-11 06:28N 41°22' E 002°11'0 0.0
2018-Dec-11 05:58N 41°22' E 002°11'0 0.0
2018-Dec-11 05:30N 41°22' E 002°11'1 2.9
2018-Dec-11 05:00N 41°20' E 002°10'4 8.7
2018-Dec-11 04:30N 41°16' E 002°11'612.8
2018-Dec-11 04:00N 41°11' E 002°05'612.3
2018-Dec-11 03:30N 41°07' E 002°00'612.7
2018-Dec-11 03:00N 41°02' E 001°55'2115.6
2018-Dec-11 03:00N 41°00' E 001°54'510.3 280 / 121024.010.8 16.0 19.0
2018-Dec-11 02:30N 40°57' E 001°49'713.0
2018-Dec-11 02:00N 40°51' E 001°44'2914.5
2018-Dec-11 00:00N 40°30' E 001°18'4715.8 240 / 61026.010.8 16.0 19.0
2018-Dec-10 21:00N 40°00' E 000°30'3914.3 150 / 71027.010.8 16.0 19.0
2018-Dec-10 18:16N 39°33' W 000°07'416.0
2018-Dec-10 18:01N 39°30' W 000°10'713.9
2018-Dec-10 17:30N 39°26' W 000°17'2 4.7
2018-Dec-10 17:00N 39°27' W 000°19'0 0.0
2018-Dec-10 16:29N 39°27' W 000°19'0 0.0
2018-Dec-10 16:01N 39°27' W 000°19'0 0.0
2018-Dec-10 15:27N 39°27' W 000°19'0 0.0
2018-Dec-10 14:59N 39°27' W 000°19'0 0.0
2018-Dec-10 14:29N 39°27' W 000°19'0 0.0
2018-Dec-10 13:55N 39°27' W 000°19'0 0.0
2018-Dec-10 13:27N 39°27' W 000°19'0 0.0
2018-Dec-10 12:59N 39°27' W 000°19'0 0.0
2018-Dec-10 12:29N 39°27' W 000°19'0 0.0
2018-Dec-10 11:59N 39°27' W 000°19'0 0.0
2018-Dec-10 11:28N 39°27' W 000°19'0 0.0
2018-Dec-10 10:52N 39°27' W 000°19'0 0.0
2018-Dec-10 10:29N 39°27' W 000°19'0 0.0
2018-Dec-10 10:00N 39°27' W 000°19'0 0.0
2018-Dec-10 09:30N 39°27' W 000°19'0 0.0
2018-Dec-10 08:55N 39°27' W 000°19'0 0.0
2018-Dec-10 08:26N 39°27' W 000°19'0 0.0
2018-Dec-10 07:56N 39°27' W 000°19'0 0.0
2018-Dec-10 07:30N 39°27' W 000°19'0 0.0
2018-Dec-10 06:55N 39°27' W 000°19'0 0.8
2018-Dec-10 06:30N 39°27' W 000°19'2 3.7
2018-Dec-10 06:00N 39°26' W 000°18'4 7.4
2018-Dec-10 05:29N 39°23' W 000°14'20 8.1
2018-Dec-10 03:00N 39°06' E 000°00'26 8.6 090 / 111028.027.0 19.0 19.0
2018-Dec-10 00:00N 38°48' E 000°24'11 6.5 300 / 141027.010.8 19.0 19.0
2018-Dec-09 22:20N 38°37' E 000°24'3 8.6
2018-Dec-09 22:00N 38°35' E 000°22'4 8.5
2018-Dec-09 21:30N 38°31' E 000°19'4 8.4
2018-Dec-09 21:00N 38°28' E 000°16'5306.8
2018-Dec-09 21:00N 38°24' E 000°12'1 1.3 250 / 91027.010.8 17.0 19.0
2018-Dec-09 20:30N 38°24' E 000°13'4 8.6
2018-Dec-09 20:00N 38°21' E 000°10'4 8.7
2018-Dec-09 19:30N 38°17' E 000°06'4 8.9
2018-Dec-09 19:00N 38°14' E 000°03'4 8.8
2018-Dec-09 18:30N 38°10' E 000°00'4 8.6
2018-Dec-09 18:00N 38°07' W 000°03'1398789.1
2018-Dec-09 18:00N 38°06' W 003°00'137279.1 230 / 131027.0 5.4 16.0 19.0
2018-Dec-09 17:30N 38°03' W 000°06'5 8.9
2018-Dec-09 16:59N 37°59' W 000°09'4 9.1
2018-Dec-09 16:30N 37°55' W 000°12'4 8.8
2018-Dec-09 16:00N 37°52' W 000°15'4 8.8
2018-Dec-09 15:30N 37°48' W 000°18'4 8.9
2018-Dec-09 15:00N 37°44' W 000°21'3217.6
2018-Dec-09 15:00N 37°42' W 000°18'511.2 230 / 191026.0 5.4 17.0 19.0
2018-Dec-09 14:30N 37°41' W 000°25'4 9.0
2018-Dec-09 14:00N 37°37' W 000°28'4 8.9
2018-Dec-09 13:30N 37°33' W 000°31'611.1
2018-Dec-09 13:00N 37°29' W 000°36'713.3
2018-Dec-09 12:30N 37°25' W 000°42'713.2
2018-Dec-09 12:00N 37°21' W 000°49'3166.1
2018-Dec-09 12:00N 37°18' W 000°48'611.7 240 / 121028.0 5.4 17.0 19.0
2018-Dec-09 11:29N 37°16' W 000°55'613.4
2018-Dec-09 11:00N 37°12' W 001°01'713.0
2018-Dec-09 10:27N 37°07' W 001°08'1012.8
2018-Dec-09 09:40N 37°00' W 001°17'812.4
2018-Dec-09 09:00N 36°54' W 001°24'4213.9 290 / 71030.010.8 16.0 19.0
2018-Dec-09 06:00N 36°24' W 002°00'3913.0 030 / 41029.0 5.4 16.0 19.0
2018-Dec-09 03:00N 36°18' W 002°48'3913.0 070 / 121029.010.8 17.0 19.0
2018-Dec-09 00:00N 36°24' W 003°36'34 1.6 060 / 141029.0 5.4 17.0 19.0
2018-Dec-08 03:00N 36°24' W 004°18'19 6.2 250 / 131026.010.8 17.0 19.0
2018-Dec-08 00:00N 36°06' W 004°12'20 6.8 250 / 181026.0 5.4 17.0 19.0
2018-Dec-07 21:00N 36°00' W 004°36'2910.1 270 / 141027.0 5.4 17.0 19.0
2018-Dec-07 18:07N 35°60' W 005°12'215.5
2018-Dec-07 18:00N 36°01' W 005°14'714.5
2018-Dec-07 17:31N 36°05' W 005°21'4 6.1
2018-Dec-07 16:55N 36°09' W 005°22'0 0.0
2018-Dec-07 07:16N 36°09' W 005°22'0 0.0
2018-Dec-07 07:01N 36°09' W 005°22'0 0.1
2018-Dec-07 06:31N 36°09' W 005°22'3 5.2
2018-Dec-07 06:00N 36°06' W 005°23'510.0
2018-Dec-07 05:30N 36°01' W 005°23'612.5
2018-Dec-07 05:00N 35°58' W 005°29'2314.1
2018-Dec-07 03:24N 35°55' W 005°57'2 5.9
2018-Dec-07 03:00N 35°54' W 006°00'3913.1 1026.0 5.4 17.0 21.0
2018-Dec-07 00:00N 36°00' W 006°48'30 9.9 350 / 151026.010.8 17.0 20.0
2018-Dec-06 21:00N 36°06' W 007°24'25 8.3 340 / 121027.010.8 19.0 21.0
2018-Dec-06 18:00N 36°12' W 007°54'3110.5 320 / 91027.027.0 17.0 20.0
2018-Dec-06 15:00N 36°24' W 008°30'17 9.4 340 / 91026.510.8 16.0 20.0
2018-Dec-06 13:10N 36°28' W 008°51'2 8.5
2018-Dec-06 12:59N 36°28' W 008°53'611.8
2018-Dec-06 12:30N 36°30' W 008°59'510.3
2018-Dec-06 12:00N 36°30' W 009°06'267.0 350 / 191028.0 5.4 17.0 20.0
2018-Dec-06 11:57N 36°32' W 009°08'612.2
2018-Dec-06 11:30N 36°33' W 009°14'611.7
2018-Dec-06 11:00N 36°37' W 009°20'611.9
2018-Dec-06 10:30N 36°41' W 009°25'611.8
2018-Dec-06 10:00N 36°46' W 009°30'611.8
2018-Dec-06 09:30N 36°51' W 009°33'612.7
2018-Dec-06 09:00N 36°57' W 009°35'5365.6
2018-Dec-06 09:00N 36°54' W 009°30'1218.9 020 / 181029.010.8 17.0 19.0
2018-Dec-06 08:20N 37°06' W 009°34'512.9
2018-Dec-06 07:59N 37°10' W 009°34'613.1
2018-Dec-06 07:30N 37°17' W 009°33'812.9
2018-Dec-06 06:54N 37°25' W 009°33'513.2
2018-Dec-06 06:31N 37°30' W 009°33'713.3
2018-Dec-06 06:00N 37°36' W 009°32'182.8
2018-Dec-06 06:00N 37°36' W 009°30'714.2 020 / 121029.010.8 16.0 18.0
2018-Dec-06 05:30N 37°43' W 009°30'713.3
2018-Dec-06 05:00N 37°50' W 009°29'612.9
2018-Dec-06 04:30N 37°56' W 009°28'612.8
2018-Dec-06 04:00N 38°02' W 009°27'612.8
2018-Dec-06 03:30N 38°09' W 009°27'4 8.2
2018-Dec-06 03:00N 38°12' W 009°24'1021.6 020 / 71029.010.8 16.0 19.0
2018-Dec-06 02:30N 38°22' W 009°26'713.8
2018-Dec-06 02:00N 38°29' W 009°25'612.7
2018-Dec-06 01:30N 38°36' W 009°24'611.8
2018-Dec-06 01:01N 38°40' W 009°19'510.3
2018-Dec-06 00:30N 38°41' W 009°12'4 8.2
2018-Dec-06 00:01N 38°43' W 009°07'0 0.1
2018-Dec-05 23:29N 38°43' W 009°07'0 0.0
2018-Dec-05 23:00N 38°43' W 009°07'0 0.0
2018-Dec-05 22:28N 38°43' W 009°07'0 0.0
2018-Dec-05 22:00N 38°43' W 009°07'0 0.0
2018-Dec-05 21:28N 38°43' W 009°07'0 0.0
2018-Dec-05 21:00N 38°43' W 009°07'0 0.0
2018-Dec-05 20:30N 38°43' W 009°07'0 0.0
2018-Dec-05 19:58N 38°43' W 009°07'0 0.0
2018-Dec-05 19:29N 38°43' W 009°07'0 0.0
2018-Dec-05 18:58N 38°43' W 009°07'0 0.0
2018-Dec-05 18:29N 38°43' W 009°07'0 0.0
2018-Dec-05 17:58N 38°43' W 009°07'0 0.0
2018-Dec-05 17:30N 38°43' W 009°07'0 0.0
2018-Dec-05 17:00N 38°43' W 009°07'0 0.0
2018-Dec-05 16:30N 38°43' W 009°07'0 0.0
2018-Dec-05 15:58N 38°43' W 009°07'0 0.0
2018-Dec-05 15:28N 38°43' W 009°07'0 0.0
2018-Dec-05 15:00N 38°43' W 009°07'0 0.0
2018-Dec-05 14:29N 38°43' W 009°07'0 0.0
2018-Dec-05 13:55N 38°43' W 009°07'0 0.0
2018-Dec-05 13:30N 38°43' W 009°07'0 0.0
2018-Dec-05 13:00N 38°43' W 009°07'0 0.0
2018-Dec-05 12:28N 38°43' W 009°07'0 0.0
2018-Dec-05 11:59N 38°43' W 009°07'0 0.0
2018-Dec-05 11:30N 38°43' W 009°07'0 0.0
2018-Dec-05 11:00N 38°43' W 009°07'0 0.0
2018-Dec-05 10:29N 38°43' W 009°07'0 0.0
2018-Dec-05 10:00N 38°43' W 009°07'0 0.0
2018-Dec-05 09:29N 38°43' W 009°07'0 0.1
2018-Dec-05 09:00N 38°43' W 009°07'1 2.2
2018-Dec-05 08:30N 38°42' W 009°09'5 9.2
2018-Dec-05 08:00N 38°41' W 009°14'510.8
2018-Dec-05 07:30N 38°39' W 009°20'612.8
2018-Dec-05 07:00N 38°33' W 009°24'815.2
2018-Dec-05 06:30N 38°25' W 009°23'815.6
2018-Dec-05 06:00N 38°17' W 009°24'815.6
2018-Dec-05 05:30N 38°10' W 009°23'815.7
2018-Dec-05 05:00N 38°02' W 009°23'714.8
2018-Dec-05 04:31N 37°54' W 009°23'918.0
2018-Dec-05 04:00N 37°45' W 009°23'918.0
2018-Dec-05 03:30N 37°36' W 009°23'918.0
2018-Dec-05 03:00N 37°27' W 009°22'51034.9
2018-Dec-05 03:00N 37°24' W 009°18'1515.4 340 / 31023.010.8 17.0 19.0
2018-Dec-05 02:00N 37°09' W 009°22'918.0
2018-Dec-05 01:29N 36°60' W 009°21'917.7
2018-Dec-05 00:56N 36°51' W 009°17'1117.3
2018-Dec-05 00:19N 36°44' W 009°07'617.6
2018-Dec-05 00:00N 36°42' W 009°00'122.7 050 / 21023.0 5.4 17.0 19.0
2018-Dec-04 23:57N 36°42' W 008°59'1117.5
2018-Dec-04 23:19N 36°42' W 008°45'517.5
2018-Dec-04 23:00N 36°41' W 008°38'917.9
2018-Dec-04 22:30N 36°41' W 008°27'1717.7
2018-Dec-04 21:34N 36°40' W 008°07'117.4
2018-Dec-04 21:30N 36°40' W 008°05'917.8
2018-Dec-04 21:00N 36°39' W 007°54'3613.9
2018-Dec-04 21:00N 36°36' W 007°54'1118.5 010 / 71023.0 0.0 22.0 20.0
2018-Dec-04 20:23N 36°38' W 007°40'717.9
2018-Dec-04 20:00N 36°38' W 007°32'918.0
2018-Dec-04 19:30N 36°37' W 007°21'1717.9
2018-Dec-04 18:33N 36°36' W 006°59'418.1
2018-Dec-04 18:19N 36°36' W 006°54'718.1
2018-Dec-04 17:55N 36°35' W 006°45'1617.8
2018-Dec-04 17:01N 36°34' W 006°25'315.7
2018-Dec-04 16:50N 36°34' W 006°22'410.9
2018-Dec-04 16:30N 36°33' W 006°17'1 1.8
2018-Dec-04 15:47N 36°32' W 006°17'0 0.0
2018-Dec-04 13:28N 36°32' W 006°17'0 0.0
2018-Dec-04 11:53N 36°32' W 006°17'0 0.0
2018-Dec-04 05:41N 36°32' W 006°17'1 4.4
2018-Dec-04 05:27N 36°33' W 006°17'4 8.0
2018-Dec-04 05:00N 36°33' W 006°21'3316.5
2018-Dec-04 03:00N 36°00' W 006°18'15 9.7 180 / 51021.0 5.4 17.0 20.0
2018-Dec-04 01:30N 35°58' W 006°00'1813.9
2018-Dec-04 00:15N 35°57' W 005°39'314.8
2018-Dec-04 00:01N 35°58' W 005°34'5319.8
2018-Dec-04 00:00N 35°54' W 005°30'714.6 150 / 21022.010.8 17.0 20.0
2018-Dec-03 23:31N 36°00' W 005°26'713.9
2018-Dec-03 23:00N 36°02' W 005°18'713.8
2018-Dec-03 22:31N 36°03' W 005°09'714.4
2018-Dec-03 22:00N 36°05' W 005°01'714.0
2018-Dec-03 21:31N 36°06' W 004°52'815.7
2018-Dec-03 21:00N 36°06' W 004°42'312.6 210 / 91021.010.8 18.0 19.0
2018-Dec-03 20:47N 36°08' W 004°40'4223.4
2018-Dec-03 19:00N 36°12' W 003°48'5814.6 230 / 81021.0 5.4 17.0 19.0
2018-Dec-03 15:00N 36°18' W 002°36'5418.0 210 / 81021.010.8 18.0 19.0
2018-Dec-03 12:00N 36°42' W 001°36'2118.2 220 / 101021.510.8 18.0 19.0
2018-Dec-03 10:49N 36°57' W 001°16'918.0
2018-Dec-03 10:20N 37°02' W 001°08'1017.9
2018-Dec-03 09:48N 37°07' W 000°58'518.1
2018-Dec-03 09:30N 37°10' W 000°52'918.2
2018-Dec-03 09:00N 37°16' W 000°43'4298.6
2018-Dec-03 09:00N 37°12' W 000°42'1122.6 220 / 121022.010.8 17.0 19.0
2018-Dec-03 08:30N 37°21' W 000°34'918.1
2018-Dec-03 08:00N 37°26' W 000°25'918.0
2018-Dec-03 07:30N 37°31' W 000°15'918.0
2018-Dec-03 07:00N 37°37' W 000°06'917.9
2018-Dec-03 06:30N 37°42' E 000°03'2 4.4
2018-Dec-03 06:00N 37°42' E 000°06'5919.8 210 / 181020.010.8 19.0
2018-Dec-03 03:00N 38°18' E 001°06'1921.0 220 / 141020.010.8 17.0 20.0
2018-Dec-03 02:04N 38°28' E 001°27'118.0
2018-Dec-03 02:00N 38°29' E 001°28'917.9
2018-Dec-03 01:30N 38°33' E 001°38'1718.0
2018-Dec-03 00:34N 38°46' E 001°52'118.3
2018-Dec-03 00:30N 38°47' E 001°53'917.2
2018-Dec-03 00:00N 38°54' E 002°00'420.9 240 / 151021.010.8 17.0 20.0
2018-Dec-02 23:47N 38°57' E 002°04'918.1
2018-Dec-02 23:18N 39°03' E 002°12'917.9
2018-Dec-02 22:47N 39°10' E 002°20'617.8
2018-Dec-02 22:27N 39°15' E 002°25'818.1
2018-Dec-02 22:00N 39°22' E 002°30'918.2
2018-Dec-02 21:30N 39°29' E 002°37'4 7.6
2018-Dec-02 21:00N 39°33' E 002°38'0 0.0
2018-Dec-02 20:28N 39°33' E 002°38'0 0.0
2018-Dec-02 19:58N 39°33' E 002°38'0 0.0
2018-Dec-02 19:28N 39°33' E 002°38'0 0.0
2018-Dec-02 18:58N 39°33' E 002°38'0 0.0
2018-Dec-02 18:27N 39°33' E 002°38'0 0.0
2018-Dec-02 18:00N 39°33' E 002°38'0 0.0
2018-Dec-02 17:30N 39°33' E 002°38'0 0.0
2018-Dec-02 17:00N 39°33' E 002°38'0 0.0
2018-Dec-02 16:30N 39°33' E 002°38'0 0.0
2018-Dec-02 16:00N 39°33' E 002°38'0 0.0
2018-Dec-02 15:30N 39°33' E 002°38'0 0.0
2018-Dec-02 15:00N 39°33' E 002°38'0 0.0
2018-Dec-02 14:30N 39°33' E 002°38'0 0.0
2018-Dec-02 14:00N 39°33' E 002°38'0 0.0
2018-Dec-02 13:30N 39°33' E 002°38'0 0.0
2018-Dec-02 12:57N 39°33' E 002°38'0 0.0
2018-Dec-02 12:30N 39°33' E 002°38'0 0.0
2018-Dec-02 12:00N 39°33' E 002°38'0 0.0
2018-Dec-02 11:30N 39°33' E 002°38'0 0.0
2018-Dec-02 11:00N 39°33' E 002°38'0 0.0
2018-Dec-02 10:30N 39°33' E 002°38'0 0.0
2018-Dec-02 10:00N 39°33' E 002°38'0 0.0
2018-Dec-02 09:30N 39°33' E 002°38'0 0.0
2018-Dec-02 08:59N 39°33' E 002°38'0 0.0
2018-Dec-02 08:29N 39°33' E 002°38'0 0.0
2018-Dec-02 07:59N 39°33' E 002°38'0 0.0
2018-Dec-02 07:30N 39°33' E 002°38'0 0.0
2018-Dec-02 07:00N 39°33' E 002°38'0 0.0
2018-Dec-02 06:30N 39°33' E 002°38'0 0.0
2018-Dec-02 06:00N 39°33' E 002°38'0 0.0
2018-Dec-02 05:30N 39°33' E 002°38'0 0.0
2018-Dec-02 05:00N 39°33' E 002°38'0 0.0
2018-Dec-02 04:30N 39°33' E 002°38'0 0.0
2018-Dec-02 04:00N 39°33' E 002°38'0 0.0
2018-Dec-02 03:30N 39°33' E 002°38'0 0.0
2018-Dec-02 03:00N 39°33' E 002°38'0 0.8
2018-Dec-02 02:30N 39°33' E 002°38'2 3.6
2018-Dec-02 02:00N 39°31' E 002°38'510.9
2018-Dec-02 01:30N 39°27' E 002°34'714.7
2018-Dec-02 01:00N 39°27' E 002°25'1716.7
2018-Dec-02 00:00N 39°36' E 002°06'4816.0 250 / 61021.010.8 16.0 19.0
2018-Dec-01 21:00N 40°24' E 002°06'4117.6 240 / 141022.010.8 16.0 18.0
2018-Dec-01 18:41N 41°05' E 002°11'316.8
2018-Dec-01 18:30N 41°08' E 002°11'816.6
2018-Dec-01 18:00N 41°16' E 002°11'5 9.7
2018-Dec-01 17:30N 41°21' E 002°10'1 2.3
2018-Dec-01 16:59N 41°22' E 002°11'0 0.0
2018-Dec-01 16:28N 41°22' E 002°11'0 0.0
2018-Dec-01 16:00N 41°22' E 002°11'0 0.0
2018-Dec-01 15:30N 41°22' E 002°11'0 0.0
2018-Dec-01 14:57N 41°22' E 002°11'0 0.0
2018-Dec-01 14:29N 41°22' E 002°11'0 0.0
2018-Dec-01 13:58N 41°22' E 002°11'0 0.0
2018-Dec-01 13:30N 41°22' E 002°11'0 0.0
2018-Dec-01 13:00N 41°22' E 002°11'0 0.0
2018-Dec-01 12:29N 41°22' E 002°11'0 0.0
2018-Dec-01 11:59N 41°22' E 002°11'0 0.0
2018-Dec-01 11:29N 41°22' E 002°11'0 0.0
2018-Dec-01 10:59N 41°22' E 002°11'0 0.0
2018-Dec-01 10:28N 41°22' E 002°11'0 0.0
2018-Dec-01 09:58N 41°22' E 002°11'0 0.0
2018-Dec-01 09:30N 41°22' E 002°11'0 0.0
2018-Dec-01 08:59N 41°22' E 002°11'0 0.0
2018-Dec-01 08:30N 41°22' E 002°11'0 0.0
2018-Dec-01 07:58N 41°22' E 002°11'  

Dump ship's entire track history